Pilar do Sul, Brazil
Current Conditions -  °F | °C
As of 8:00 PM on Wednesday 22 Oct 2014 (Local Time) from SBKP Reporting Station
Clear Clear  
Wind Chill: 66°   Ceiling: Unl
Heat Index: 66°   Visibility: 6mi
Dew Point: 55°   Wind: 26mph
Humidity: 68%   Direction: 150°SSE
Pressure: 30.09"   Gusts: NA
Location:  23.81°S, 47.7°W
Report Text: SBKP 222200Z 15023KT CAVOK 19/13 Q1019
Loading
Personal Weather Stations






























Interactive Weather Map
Tropical Storm Tracking
New forecast layout! Learn more

10-Day Weather Forecast

Advertisements
Track Severe Weather on mobile